sensor_id;sensor_type;location;lat;lon;timestamp;temperature;humidity
16172;DHT22;8192;53.596;10.166;2023-05-16T00:00:06;10.10;99.90
16172;DHT22;8192;53.596;10.166;2023-05-16T00:02:33;10.10;99.90
16172;DHT22;8192;53.596;10.166;2023-05-16T00:05:02;10.20;99.90
16172;DHT22;8192;53.596;10.166;2023-05-16T00:07:29;10.20;99.90
16172;DHT22;8192;53.596;10.166;2023-05-16T00:09:56;10.20;99.90
16172;DHT22;8192;53.596;10.166;2023-05-16T00:12:23;10.20;99.90
16172;DHT22;8192;53.596;10.166;2023-05-16T00:14:52;10.20;99.90
16172;DHT22;8192;53.596;10.166;2023-05-16T00:17:21;10.20;99.90
16172;DHT22;8192;53.596;10.166;2023-05-16T00:19:51;10.30;99.90
16172;DHT22;8192;53.596;10.166;2023-05-16T00:22:22;10.20;99.90
16172;DHT22;8192;53.596;10.166;2023-05-16T00:24:50;10.30;99.90
16172;DHT22;8192;53.596;10.166;2023-05-16T00:27:17;10.20;99.90
16172;DHT22;8192;53.596;10.166;2023-05-16T00:29:44;10.30;99.90
16172;DHT22;8192;53.596;10.166;2023-05-16T00:32:11;10.30;99.90
16172;DHT22;8192;53.596;10.166;2023-05-16T00:34:40;10.30;99.90
16172;DHT22;8192;53.596;10.166;2023-05-16T00:37:07;10.30;99.90
16172;DHT22;8192;53.596;10.166;2023-05-16T00:39:34;10.30;99.90
16172;DHT22;8192;53.596;10.166;2023-05-16T00:42:01;10.30;99.90
16172;DHT22;8192;53.596;10.166;2023-05-16T00:44:28;10.30;99.90
16172;DHT22;8192;53.596;10.166;2023-05-16T00:46:56;10.20;99.90
16172;DHT22;8192;53.596;10.166;2023-05-16T00:49:24;10.30;99.90
16172;DHT22;8192;53.596;10.166;2023-05-16T00:51:53;10.30;99.90
16172;DHT22;8192;53.596;10.166;2023-05-16T00:54:22;10.30;99.90
16172;DHT22;8192;53.596;10.166;2023-05-16T00:56:50;10.30;99.90
16172;DHT22;8192;53.596;10.166;2023-05-16T00:59:18;10.30;99.90
16172;DHT22;8192;53.596;10.166;2023-05-16T01:01:45;10.30;99.90
16172;DHT22;8192;53.596;10.166;2023-05-16T01:04:13;10.30;99.90
16172;DHT22;8192;53.596;10.166;2023-05-16T01:06:40;10.30;99.90
16172;DHT22;8192;53.596;10.166;2023-05-16T01:09:09;10.40;99.90
16172;DHT22;8192;53.596;10.166;2023-05-16T01:11:45;10.40;99.90
16172;DHT22;8192;53.596;10.166;2023-05-16T01:14:20;10.40;99.90
16172;DHT22;8192;53.596;10.166;2023-05-16T01:17:09;10.40;99.90
16172;DHT22;8192;53.596;10.166;2023-05-16T01:19:50;10.40;99.90
16172;DHT22;8192;53.596;10.166;2023-05-16T01:22:34;10.40;99.90
16172;DHT22;8192;53.596;10.166;2023-05-16T01:25:19;10.40;99.90
16172;DHT22;8192;53.596;10.166;2023-05-16T01:27:49;10.40;99.90
16172;DHT22;8192;53.596;10.166;2023-05-16T01:30:18;10.40;99.90
16172;DHT22;8192;53.596;10.166;2023-05-16T01:32:45;10.50;99.90
16172;DHT22;8192;53.596;10.166;2023-05-16T01:35:16;10.50;99.90
16172;DHT22;8192;53.596;10.166;2023-05-16T01:37:49;10.60;99.90
16172;DHT22;8192;53.596;10.166;2023-05-16T01:40:25;10.50;99.90
16172;DHT22;8192;53.596;10.166;2023-05-16T01:42:57;10.50;99.90
16172;DHT22;8192;53.596;10.166;2023-05-16T01:45:28;10.60;99.90
16172;DHT22;8192;53.596;10.166;2023-05-16T01:48:03;10.50;99.90
16172;DHT22;8192;53.596;10.166;2023-05-16T01:50:33;10.50;99.90
16172;DHT22;8192;53.596;10.166;2023-05-16T01:53:14;10.60;99.90
16172;DHT22;8192;53.596;10.166;2023-05-16T01:55:45;10.60;99.90
16172;DHT22;8192;53.596;10.166;2023-05-16T01:58:15;10.60;99.90
16172;DHT22;8192;53.596;10.166;2023-05-16T02:00:43;10.60;99.90
16172;DHT22;8192;53.596;10.166;2023-05-16T02:03:10;10.60;99.90
16172;DHT22;8192;53.596;10.166;2023-05-16T02:05:37;10.70;99.90
16172;DHT22;8192;53.596;10.166;2023-05-16T02:08:05;10.70;99.90
16172;DHT22;8192;53.596;10.166;2023-05-16T02:10:32;10.60;99.90
16172;DHT22;8192;53.596;10.166;2023-05-16T02:13:00;10.60;99.90
16172;DHT22;8192;53.596;10.166;2023-05-16T02:15:28;10.40;99.90
16172;DHT22;8192;53.596;10.166;2023-05-16T02:17:56;10.40;99.90
16172;DHT22;8192;53.596;10.166;2023-05-16T02:20:23;10.50;99.90
16172;DHT22;8192;53.596;10.166;2023-05-16T02:22:50;10.40;99.90
16172;DHT22;8192;53.596;10.166;2023-05-16T02:25:17;10.50;99.90
16172;DHT22;8192;53.596;10.166;2023-05-16T02:27:44;10.50;99.90
16172;DHT22;8192;53.596;10.166;2023-05-16T02:30:12;10.40;99.90
16172;DHT22;8192;53.596;10.166;2023-05-16T02:32:42;10.50;99.90
16172;DHT22;8192;53.596;10.166;2023-05-16T02:35:10;10.40;99.90
16172;DHT22;8192;53.596;10.166;2023-05-16T02:37:37;10.40;99.90
16172;DHT22;8192;53.596;10.166;2023-05-16T02:40:05;10.40;99.90
16172;DHT22;8192;53.596;10.166;2023-05-16T02:42:33;10.30;99.90
16172;DHT22;8192;53.596;10.166;2023-05-16T02:45:00;10.40;99.90
16172;DHT22;8192;53.596;10.166;2023-05-16T02:47:27;10.40;99.90
16172;DHT22;8192;53.596;10.166;2023-05-16T02:49:56;10.30;99.90
16172;DHT22;8192;53.596;10.166;2023-05-16T02:52:23;10.30;99.90
16172;DHT22;8192;53.596;10.166;2023-05-16T02:54:50;10.30;99.90
16172;DHT22;8192;53.596;10.166;2023-05-16T02:57:17;10.40;99.90
16172;DHT22;8192;53.596;10.166;2023-05-16T02:59:44;10.30;99.90
16172;DHT22;8192;53.596;10.166;2023-05-16T03:02:12;10.30;99.90
16172;DHT22;8192;53.596;10.166;2023-05-16T03:04:39;10.30;99.90
16172;DHT22;8192;53.596;10.166;2023-05-16T03:07:07;10.30;99.90
16172;DHT22;8192;53.596;10.166;2023-05-16T03:09:35;10.30;99.90
16172;DHT22;8192;53.596;10.166;2023-05-16T03:12:03;10.20;99.90
16172;DHT22;8192;53.596;10.166;2023-05-16T03:14:30;10.30;99.90
16172;DHT22;8192;53.596;10.166;2023-05-16T03:16:57;10.30;99.90
16172;DHT22;8192;53.596;10.166;2023-05-16T03:19:25;10.30;99.90
16172;DHT22;8192;53.596;10.166;2023-05-16T03:21:52;10.30;99.90
16172;DHT22;8192;53.596;10.166;2023-05-16T03:24:21;10.20;99.90
16172;DHT22;8192;53.596;10.166;2023-05-16T03:26:48;10.20;99.90
16172;DHT22;8192;53.596;10.166;2023-05-16T03:29:15;10.20;99.90
16172;DHT22;8192;53.596;10.166;2023-05-16T03:31:43;10.20;99.90
16172;DHT22;8192;53.596;10.166;2023-05-16T03:34:09;10.20;99.90
16172;DHT22;8192;53.596;10.166;2023-05-16T03:36:38;10.10;99.90
16172;DHT22;8192;53.596;10.166;2023-05-16T03:39:05;10.10;99.90
16172;DHT22;8192;53.596;10.166;2023-05-16T03:41:34;10.10;99.90
16172;DHT22;8192;53.596;10.166;2023-05-16T03:44:02;10.10;99.90
16172;DHT22;8192;53.596;10.166;2023-05-16T03:46:29;10.20;99.90
16172;DHT22;8192;53.596;10.166;2023-05-16T03:48:56;10.10;99.90
16172;DHT22;8192;53.596;10.166;2023-05-16T03:51:23;10.10;99.90
16172;DHT22;8192;53.596;10.166;2023-05-16T03:53:51;10.10;99.90
16172;DHT22;8192;53.596;10.166;2023-05-16T03:56:18;10.10;99.90
16172;DHT22;8192;53.596;10.166;2023-05-16T03:59:08;10.10;99.90
16172;DHT22;8192;53.596;10.166;2023-05-16T04:01:40;10.10;99.90
16172;DHT22;8192;53.596;10.166;2023-05-16T04:04:09;10.00;99.90
16172;DHT22;8192;53.596;10.166;2023-05-16T04:06:37;10.00;99.90
16172;DHT22;8192;53.596;10.166;2023-05-16T04:09:05;10.00;99.90
16172;DHT22;8192;53.596;10.166;2023-05-16T04:11:35;10.10;99.90
16172;DHT22;8192;53.596;10.166;2023-05-16T04:14:19;10.10;99.90
16172;DHT22;8192;53.596;10.166;2023-05-16T04:16:46;10.00;99.90
16172;DHT22;8192;53.596;10.166;2023-05-16T04:19:14;10.00;99.90
16172;DHT22;8192;53.596;10.166;2023-05-16T04:21:42;10.00;99.90
16172;DHT22;8192;53.596;10.166;2023-05-16T04:24:09;10.00;99.90
16172;DHT22;8192;53.596;10.166;2023-05-16T04:26:37;9.90;99.90
16172;DHT22;8192;53.596;10.166;2023-05-16T04:29:05;10.10;99.90
16172;DHT22;8192;53.596;10.166;2023-05-16T04:31:38;10.10;99.90
16172;DHT22;8192;53.596;10.166;2023-05-16T04:34:12;10.00;99.90
16172;DHT22;8192;53.596;10.166;2023-05-16T04:43:09;10.20;99.90
16172;DHT22;8192;53.596;10.166;2023-05-16T04:45:41;10.10;99.90
16172;DHT22;8192;53.596;10.166;2023-05-16T04:48:13;10.10;99.90
16172;DHT22;8192;53.596;10.166;2023-05-16T04:50:41;10.20;99.90
16172;DHT22;8192;53.596;10.166;2023-05-16T04:53:08;10.20;99.90
16172;DHT22;8192;53.596;10.166;2023-05-16T04:55:35;10.20;99.90
16172;DHT22;8192;53.596;10.166;2023-05-16T04:58:03;10.30;99.90
16172;DHT22;8192;53.596;10.166;2023-05-16T05:00:32;10.30;99.90
16172;DHT22;8192;53.596;10.166;2023-05-16T05:03:03;10.20;99.90
16172;DHT22;8192;53.596;10.166;2023-05-16T05:05:33;10.30;99.90
16172;DHT22;8192;53.596;10.166;2023-05-16T05:08:01;10.30;99.90
16172;DHT22;8192;53.596;10.166;2023-05-16T05:10:29;10.40;99.90
16172;DHT22;8192;53.596;10.166;2023-05-16T05:12:56;10.50;99.90
16172;DHT22;8192;53.596;10.166;2023-05-16T05:15:23;10.90;99.90
16172;DHT22;8192;53.596;10.166;2023-05-16T05:17:50;11.50;99.90
16172;DHT22;8192;53.596;10.166;2023-05-16T05:20:18;11.80;99.90
16172;DHT22;8192;53.596;10.166;2023-05-16T05:22:46;11.90;99.90
16172;DHT22;8192;53.596;10.166;2023-05-16T05:25:14;11.60;99.90
16172;DHT22;8192;53.596;10.166;2023-05-16T05:27:41;11.40;99.90
16172;DHT22;8192;53.596;10.166;2023-05-16T05:30:08;11.30;99.90
16172;DHT22;8192;53.596;10.166;2023-05-16T05:32:35;11.90;99.90
16172;DHT22;8192;53.596;10.166;2023-05-16T05:35:04;12.30;99.90
16172;DHT22;8192;53.596;10.166;2023-05-16T05:37:36;13.00;99.90
16172;DHT22;8192;53.596;10.166;2023-05-16T05:40:06;13.10;99.90
16172;DHT22;8192;53.596;10.166;2023-05-16T05:42:33;13.20;99.90
16172;DHT22;8192;53.596;10.166;2023-05-16T05:45:00;13.10;99.90
16172;DHT22;8192;53.596;10.166;2023-05-16T05:47:28;13.70;99.90
16172;DHT22;8192;53.596;10.166;2023-05-16T05:49:56;14.20;99.90
16172;DHT22;8192;53.596;10.166;2023-05-16T05:52:23;14.20;99.90
16172;DHT22;8192;53.596;10.166;2023-05-16T05:54:52;14.10;99.90
16172;DHT22;8192;53.596;10.166;2023-05-16T05:57:21;12.90;99.90
16172;DHT22;8192;53.596;10.166;2023-05-16T05:59:48;12.40;99.90
16172;DHT22;8192;53.596;10.166;2023-05-16T06:02:15;11.90;99.90
16172;DHT22;8192;53.596;10.166;2023-05-16T06:04:42;11.70;99.90
16172;DHT22;8192;53.596;10.166;2023-05-16T06:07:09;11.30;99.90
16172;DHT22;8192;53.596;10.166;2023-05-16T06:09:36;11.00;99.90
16172;DHT22;8192;53.596;10.166;2023-05-16T06:12:04;10.90;99.90
16172;DHT22;8192;53.596;10.166;2023-05-16T06:14:33;10.70;99.90
16172;DHT22;8192;53.596;10.166;2023-05-16T06:17:00;10.90;99.90
16172;DHT22;8192;53.596;10.166;2023-05-16T06:19:27;11.70;99.90
16172;DHT22;8192;53.596;10.166;2023-05-16T06:21:54;12.10;99.90
16172;DHT22;8192;53.596;10.166;2023-05-16T06:24:21;12.60;99.90
16172;DHT22;8192;53.596;10.166;2023-05-16T06:26:48;12.70;99.90
16172;DHT22;8192;53.596;10.166;2023-05-16T06:29:20;12.80;99.90
16172;DHT22;8192;53.596;10.166;2023-05-16T06:31:49;13.30;99.90
16172;DHT22;8192;53.596;10.166;2023-05-16T06:34:16;13.20;99.90
16172;DHT22;8192;53.596;10.166;2023-05-16T06:36:43;13.30;99.90
16172;DHT22;8192;53.596;10.166;2023-05-16T06:39:11;12.90;99.90
16172;DHT22;8192;53.596;10.166;2023-05-16T06:41:39;12.10;98.50
16172;DHT22;8192;53.596;10.166;2023-05-16T06:44:07;12.30;98.90
16172;DHT22;8192;53.596;10.166;2023-05-16T06:46:34;12.00;96.60
16172;DHT22;8192;53.596;10.166;2023-05-16T06:49:04;12.30;96.30
16172;DHT22;8192;53.596;10.166;2023-05-16T06:51:34;13.50;99.60
16172;DHT22;8192;53.596;10.166;2023-05-16T06:54:01;14.70;99.00
16172;DHT22;8192;53.596;10.166;2023-05-16T06:56:28;14.70;95.90
16172;DHT22;8192;53.596;10.166;2023-05-16T06:58:56;14.20;93.40
16172;DHT22;8192;53.596;10.166;2023-05-16T07:01:23;14.30;92.60
16172;DHT22;8192;53.596;10.166;2023-05-16T07:03:52;15.10;93.60
16172;DHT22;8192;53.596;10.166;2023-05-16T07:06:25;14.90;91.70
16172;DHT22;8192;53.596;10.166;2023-05-16T07:08:54;13.90;88.40
16172;DHT22;8192;53.596;10.166;2023-05-16T07:11:21;13.00;86.90
16172;DHT22;8192;53.596;10.166;2023-05-16T07:13:48;12.40;87.00
16172;DHT22;8192;53.596;10.166;2023-05-16T07:16:15;12.80;87.80
16172;DHT22;8192;53.596;10.166;2023-05-16T07:18:42;13.50;85.00
16172;DHT22;8192;53.596;10.166;2023-05-16T07:21:09;14.40;84.70
16172;DHT22;8192;53.596;10.166;2023-05-16T07:23:38;15.00;85.30
16172;DHT22;8192;53.596;10.166;2023-05-16T07:26:05;15.10;80.20
16172;DHT22;8192;53.596;10.166;2023-05-16T07:28:33;14.70;78.10
16172;DHT22;8192;53.596;10.166;2023-05-16T07:31:06;15.40;77.90
16172;DHT22;8192;53.596;10.166;2023-05-16T07:33:33;15.00;67.60
16172;DHT22;8192;53.596;10.166;2023-05-16T07:36:01;14.80;66.30
16172;DHT22;8192;53.596;10.166;2023-05-16T07:38:28;15.80;66.00
16172;DHT22;8192;53.596;10.166;2023-05-16T07:41:01;15.90;62.60
16172;DHT22;8192;53.596;10.166;2023-05-16T07:43:29;16.80;64.10
16172;DHT22;8192;53.596;10.166;2023-05-16T07:45:56;17.20;61.10
16172;DHT22;8192;53.596;10.166;2023-05-16T07:48:24;16.00;55.70
16172;DHT22;8192;53.596;10.166;2023-05-16T07:50:51;14.80;53.30
16172;DHT22;8192;53.596;10.166;2023-05-16T07:53:20;14.20;54.70
16172;DHT22;8192;53.596;10.166;2023-05-16T07:55:47;13.50;56.00
16172;DHT22;8192;53.596;10.166;2023-05-16T07:58:16;13.10;56.60
16172;DHT22;8192;53.596;10.166;2023-05-16T08:00:43;12.90;57.20
16172;DHT22;8192;53.596;10.166;2023-05-16T08:03:10;13.40;56.70
16172;DHT22;8192;53.596;10.166;2023-05-16T08:05:37;13.90;53.70
16172;DHT22;8192;53.596;10.166;2023-05-16T08:08:04;14.30;53.50
16172;DHT22;8192;53.596;10.166;2023-05-16T08:10:31;14.60;53.50
16172;DHT22;8192;53.596;10.166;2023-05-16T08:12:58;14.20;51.50
16172;DHT22;8192;53.596;10.166;2023-05-16T08:15:27;13.90;48.40
16172;DHT22;8192;53.596;10.166;2023-05-16T08:17:56;13.40;48.50
16172;DHT22;8192;53.596;10.166;2023-05-16T08:20:25;13.40;50.00
16172;DHT22;8192;53.596;10.166;2023-05-16T08:22:52;13.80;48.90
16172;DHT22;8192;53.596;10.166;2023-05-16T08:25:19;13.70;46.60
16172;DHT22;8192;53.596;10.166;2023-05-16T08:28:04;13.80;47.60
16172;DHT22;8192;53.596;10.166;2023-05-16T08:30:32;13.80;45.90
16172;DHT22;8192;53.596;10.166;2023-05-16T08:32:59;13.70;46.90
16172;DHT22;8192;53.596;10.166;2023-05-16T08:35:29;14.20;47.70
16172;DHT22;8192;53.596;10.166;2023-05-16T08:37:56;14.40;46.40
16172;DHT22;8192;53.596;10.166;2023-05-16T08:40:25;14.20;47.60
16172;DHT22;8192;53.596;10.166;2023-05-16T08:42:52;14.00;47.50
16172;DHT22;8192;53.596;10.166;2023-05-16T08:45:21;13.50;48.20
16172;DHT22;8192;53.596;10.166;2023-05-16T08:47:54;13.10;49.20
16172;DHT22;8192;53.596;10.166;2023-05-16T08:50:21;12.80;46.70
16172;DHT22;8192;53.596;10.166;2023-05-16T08:52:51;12.70;48.00
16172;DHT22;8192;53.596;10.166;2023-05-16T08:55:19;13.10;48.80
16172;DHT22;8192;53.596;10.166;2023-05-16T08:57:48;13.50;48.00
16172;DHT22;8192;53.596;10.166;2023-05-16T09:00:17;13.90;48.60
16172;DHT22;8192;53.596;10.166;2023-05-16T09:02:48;13.80;47.50
16172;DHT22;8192;53.596;10.166;2023-05-16T09:05:17;13.50;45.90
16172;DHT22;8192;53.596;10.166;2023-05-16T09:07:44;13.10;45.00
16172;DHT22;8192;53.596;10.166;2023-05-16T09:10:12;13.20;40.10
16172;DHT22;8192;53.596;10.166;2023-05-16T09:12:39;13.20;40.60
16172;DHT22;8192;53.596;10.166;2023-05-16T09:15:08;13.30;41.60
16172;DHT22;8192;53.596;10.166;2023-05-16T09:17:36;13.40;42.80
16172;DHT22;8192;53.596;10.166;2023-05-16T09:20:11;13.50;42.50
16172;DHT22;8192;53.596;10.166;2023-05-16T09:22:48;13.50;43.60
16172;DHT22;8192;53.596;10.166;2023-05-16T09:25:16;13.30;44.10
16172;DHT22;8192;53.596;10.166;2023-05-16T09:27:45;13.40;46.00
16172;DHT22;8192;53.596;10.166;2023-05-16T09:30:14;13.30;47.80
16172;DHT22;8192;53.596;10.166;2023-05-16T09:32:45;12.70;45.60
16172;DHT22;8192;53.596;10.166;2023-05-16T09:35:15;12.50;45.80
16172;DHT22;8192;53.596;10.166;2023-05-16T09:37:46;12.80;45.80
16172;DHT22;8192;53.596;10.166;2023-05-16T09:40:19;13.10;45.30
16172;DHT22;8192;53.596;10.166;2023-05-16T09:42:46;13.10;42.40
16172;DHT22;8192;53.596;10.166;2023-05-16T09:45:14;13.10;42.20
16172;DHT22;8192;53.596;10.166;2023-05-16T09:47:41;13.10;41.00
16172;DHT22;8192;53.596;10.166;2023-05-16T09:50:13;13.00;41.30
16172;DHT22;8192;53.596;10.166;2023-05-16T09:52:47;13.10;42.30
16172;DHT22;8192;53.596;10.166;2023-05-16T09:55:16;13.30;42.40
16172;DHT22;8192;53.596;10.166;2023-05-16T09:57:45;13.40;44.20
16172;DHT22;8192;53.596;10.166;2023-05-16T10:00:13;13.60;44.70
16172;DHT22;8192;53.596;10.166;2023-05-16T10:02:41;13.90;41.80
16172;DHT22;8192;53.596;10.166;2023-05-16T10:05:09;14.00;39.80
16172;DHT22;8192;53.596;10.166;2023-05-16T10:07:36;14.10;39.50
16172;DHT22;8192;53.596;10.166;2023-05-16T10:10:08;14.30;40.00
16172;DHT22;8192;53.596;10.166;2023-05-16T10:12:37;14.90;39.30
16172;DHT22;8192;53.596;10.166;2023-05-16T10:15:08;15.00;37.50
16172;DHT22;8192;53.596;10.166;2023-05-16T10:17:39;15.00;36.30
16172;DHT22;8192;53.596;10.166;2023-05-16T10:20:11;14.60;38.10
16172;DHT22;8192;53.596;10.166;2023-05-16T10:22:42;14.00;39.80
16172;DHT22;8192;53.596;10.166;2023-05-16T10:25:16;13.30;39.20
16172;DHT22;8192;53.596;10.166;2023-05-16T10:27:46;13.10;44.70
16172;DHT22;8192;53.596;10.166;2023-05-16T10:30:14;12.80;43.10
16172;DHT22;8192;53.596;10.166;2023-05-16T10:32:43;13.20;46.80
16172;DHT22;8192;53.596;10.166;2023-05-16T10:35:10;13.70;45.90
16172;DHT22;8192;53.596;10.166;2023-05-16T10:37:37;14.10;44.50
16172;DHT22;8192;53.596;10.166;2023-05-16T10:40:07;14.00;45.70
16172;DHT22;8192;53.596;10.166;2023-05-16T10:42:36;13.20;51.60
16172;DHT22;8192;53.596;10.166;2023-05-16T10:45:15;12.60;49.60
16172;DHT22;8192;53.596;10.166;2023-05-16T10:47:51;12.50;50.20
16172;DHT22;8192;53.596;10.166;2023-05-16T10:50:32;12.90;47.70
16172;DHT22;8192;53.596;10.166;2023-05-16T10:53:19;13.20;49.60
16172;DHT22;8192;53.596;10.166;2023-05-16T10:56:07;13.30;46.90
16172;DHT22;8192;53.596;10.166;2023-05-16T10:58:52;13.00;45.90
16172;DHT22;8192;53.596;10.166;2023-05-16T11:01:22;13.10;48.10
16172;DHT22;8192;53.596;10.166;2023-05-16T11:04:08;13.40;41.30
16172;DHT22;8192;53.596;10.166;2023-05-16T11:06:50;13.90;43.50
16172;DHT22;8192;53.596;10.166;2023-05-16T11:09:22;13.80;41.60
16172;DHT22;8192;53.596;10.166;2023-05-16T11:12:01;13.60;38.50
16172;DHT22;8192;53.596;10.166;2023-05-16T11:14:35;13.30;39.20
16172;DHT22;8192;53.596;10.166;2023-05-16T11:17:07;13.70;41.20
16172;DHT22;8192;53.596;10.166;2023-05-16T11:19:38;13.80;44.80
16172;DHT22;8192;53.596;10.166;2023-05-16T11:22:28;14.10;45.80
16172;DHT22;8192;53.596;10.166;2023-05-16T11:24:58;14.20;44.30
16172;DHT22;8192;53.596;10.166;2023-05-16T11:27:27;14.50;41.30
16172;DHT22;8192;53.596;10.166;2023-05-16T11:30:00;14.50;37.20
16172;DHT22;8192;53.596;10.166;2023-05-16T11:32:30;14.60;36.20
16172;DHT22;8192;53.596;10.166;2023-05-16T11:34:57;14.20;35.60
16172;DHT22;8192;53.596;10.166;2023-05-16T11:37:28;14.20;35.50
16172;DHT22;8192;53.596;10.166;2023-05-16T11:39:58;14.00;35.60
16172;DHT22;8192;53.596;10.166;2023-05-16T11:42:28;14.10;35.30
16172;DHT22;8192;53.596;10.166;2023-05-16T11:45:04;14.10;37.80
16172;DHT22;8192;53.596;10.166;2023-05-16T11:47:32;13.90;35.20
16172;DHT22;8192;53.596;10.166;2023-05-16T11:49:59;13.60;35.60
16172;DHT22;8192;53.596;10.166;2023-05-16T11:52:29;13.40;36.80
16172;DHT22;8192;53.596;10.166;2023-05-16T11:54:57;13.50;38.50
16172;DHT22;8192;53.596;10.166;2023-05-16T11:57:26;13.30;37.90
16172;DHT22;8192;53.596;10.166;2023-05-16T11:59:53;13.50;36.60
16172;DHT22;8192;53.596;10.166;2023-05-16T12:02:21;13.70;36.10
16172;DHT22;8192;53.596;10.166;2023-05-16T12:04:48;13.70;37.10
16172;DHT22;8192;53.596;10.166;2023-05-16T12:07:16;13.70;36.90
16172;DHT22;8192;53.596;10.166;2023-05-16T12:09:51;13.70;37.70
16172;DHT22;8192;53.596;10.166;2023-05-16T12:12:19;14.10;37.90
16172;DHT22;8192;53.596;10.166;2023-05-16T12:14:47;14.20;37.10
16172;DHT22;8192;53.596;10.166;2023-05-16T12:17:16;14.20;34.90
16172;DHT22;8192;53.596;10.166;2023-05-16T12:19:48;14.20;35.60
16172;DHT22;8192;53.596;10.166;2023-05-16T12:22:15;14.00;34.60
16172;DHT22;8192;53.596;10.166;2023-05-16T12:24:43;14.00;35.70
16172;DHT22;8192;53.596;10.166;2023-05-16T12:27:10;13.90;36.80
16172;DHT22;8192;53.596;10.166;2023-05-16T12:29:37;13.40;36.10
16172;DHT22;8192;53.596;10.166;2023-05-16T12:32:06;13.30;37.20
16172;DHT22;8192;53.596;10.166;2023-05-16T12:34:34;13.30;36.70
16172;DHT22;8192;53.596;10.166;2023-05-16T12:37:03;13.30;36.20
16172;DHT22;8192;53.596;10.166;2023-05-16T12:39:36;13.40;36.80
16172;DHT22;8192;53.596;10.166;2023-05-16T12:42:04;13.50;36.60
16172;DHT22;8192;53.596;10.166;2023-05-16T12:44:31;13.80;37.00
16172;DHT22;8192;53.596;10.166;2023-05-16T12:46:58;14.20;35.40
16172;DHT22;8192;53.596;10.166;2023-05-16T12:49:25;13.90;35.50
16172;DHT22;8192;53.596;10.166;2023-05-16T12:51:54;13.70;36.40
16172;DHT22;8192;53.596;10.166;2023-05-16T12:54:26;13.80;38.30
16172;DHT22;8192;53.596;10.166;2023-05-16T12:56:53;14.10;39.30
16172;DHT22;8192;53.596;10.166;2023-05-16T12:59:20;14.40;40.00
16172;DHT22;8192;53.596;10.166;2023-05-16T13:01:47;13.80;41.20
16172;DHT22;8192;53.596;10.166;2023-05-16T13:04:14;13.90;43.10
16172;DHT22;8192;53.596;10.166;2023-05-16T13:06:44;13.80;43.10
16172;DHT22;8192;53.596;10.166;2023-05-16T13:09:11;13.80;43.40
16172;DHT22;8192;53.596;10.166;2023-05-16T13:11:41;13.50;43.10
16172;DHT22;8192;53.596;10.166;2023-05-16T13:14:08;13.30;45.10
16172;DHT22;8192;53.596;10.166;2023-05-16T13:16:35;12.70;46.80
16172;DHT22;8192;53.596;10.166;2023-05-16T13:19:02;11.90;63.50
16172;DHT22;8192;53.596;10.166;2023-05-16T13:21:29;10.60;99.90
16172;DHT22;8192;53.596;10.166;2023-05-16T13:23:57;10.10;99.90
16172;DHT22;8192;53.596;10.166;2023-05-16T13:26:24;10.00;99.90
16172;DHT22;8192;53.596;10.166;2023-05-16T13:28:53;10.30;99.90
16172;DHT22;8192;53.596;10.166;2023-05-16T13:31:20;10.70;99.90
16172;DHT22;8192;53.596;10.166;2023-05-16T13:33:47;10.90;96.80
16172;DHT22;8192;53.596;10.166;2023-05-16T13:36:15;11.00;84.50
16172;DHT22;8192;53.596;10.166;2023-05-16T13:38:42;11.20;89.50
16172;DHT22;8192;53.596;10.166;2023-05-16T13:41:09;11.70;93.60
16172;DHT22;8192;53.596;10.166;2023-05-16T13:43:37;12.20;82.10
16172;DHT22;8192;53.596;10.166;2023-05-16T13:46:05;12.70;69.50
16172;DHT22;8192;53.596;10.166;2023-05-16T13:48:32;13.00;53.30
16172;DHT22;8192;53.596;10.166;2023-05-16T13:50:59;12.80;55.50
16172;DHT22;8192;53.596;10.166;2023-05-16T13:53:26;13.30;51.90
16172;DHT22;8192;53.596;10.166;2023-05-16T13:55:53;13.60;47.40
16172;DHT22;8192;53.596;10.166;2023-05-16T13:58:20;13.40;45.50
16172;DHT22;8192;53.596;10.166;2023-05-16T14:00:49;12.80;46.50
16172;DHT22;8192;53.596;10.166;2023-05-16T14:03:17;12.10;48.00
16172;DHT22;8192;53.596;10.166;2023-05-16T14:05:45;12.00;53.50
16172;DHT22;8192;53.596;10.166;2023-05-16T14:08:12;12.20;48.60
16172;DHT22;8192;53.596;10.166;2023-05-16T14:10:39;12.30;48.30
16172;DHT22;8192;53.596;10.166;2023-05-16T14:13:06;12.40;48.40
16172;DHT22;8192;53.596;10.166;2023-05-16T14:15:33;12.50;47.50
16172;DHT22;8192;53.596;10.166;2023-05-16T14:18:01;12.60;49.70
16172;DHT22;8192;53.596;10.166;2023-05-16T14:20:30;13.10;45.00
16172;DHT22;8192;53.596;10.166;2023-05-16T14:22:57;13.50;45.10
16172;DHT22;8192;53.596;10.166;2023-05-16T14:25:24;13.60;46.10
16172;DHT22;8192;53.596;10.166;2023-05-16T14:27:51;14.00;46.80
16172;DHT22;8192;53.596;10.166;2023-05-16T14:30:18;14.30;46.40
16172;DHT22;8192;53.596;10.166;2023-05-16T14:32:45;14.40;46.30
16172;DHT22;8192;53.596;10.166;2023-05-16T14:35:13;14.40;45.20
16172;DHT22;8192;53.596;10.166;2023-05-16T14:38:26;14.50;46.40
16172;DHT22;8192;53.596;10.166;2023-05-16T14:40:53;14.20;46.80
16172;DHT22;8192;53.596;10.166;2023-05-16T14:43:20;14.50;46.60
16172;DHT22;8192;53.596;10.166;2023-05-16T14:45:48;14.50;47.40
16172;DHT22;8192;53.596;10.166;2023-05-16T14:48:16;14.50;43.90
16172;DHT22;8192;53.596;10.166;2023-05-16T14:50:44;13.80;40.90
16172;DHT22;8192;53.596;10.166;2023-05-16T14:53:12;13.30;43.70
16172;DHT22;8192;53.596;10.166;2023-05-16T14:55:40;13.50;41.90
16172;DHT22;8192;53.596;10.166;2023-05-16T14:58:07;13.90;41.10
16172;DHT22;8192;53.596;10.166;2023-05-16T15:00:34;13.80;37.90
16172;DHT22;8192;53.596;10.166;2023-05-16T15:03:01;13.70;38.10
16172;DHT22;8192;53.596;10.166;2023-05-16T15:05:28;13.30;35.50
16172;DHT22;8192;53.596;10.166;2023-05-16T15:07:56;13.30;36.20
16172;DHT22;8192;53.596;10.166;2023-05-16T15:10:23;13.80;35.60
16172;DHT22;8192;53.596;10.166;2023-05-16T15:12:52;14.40;36.50
16172;DHT22;8192;53.596;10.166;2023-05-16T15:15:19;14.70;35.80
16172;DHT22;8192;53.596;10.166;2023-05-16T15:17:45;14.30;37.80
16172;DHT22;8192;53.596;10.166;2023-05-16T15:20:13;14.40;39.30
16172;DHT22;8192;53.596;10.166;2023-05-16T15:22:41;14.00;39.40
16172;DHT22;8192;53.596;10.166;2023-05-16T15:25:09;13.60;41.50
16172;DHT22;8192;53.596;10.166;2023-05-16T15:27:36;13.70;39.50
16172;DHT22;8192;53.596;10.166;2023-05-16T15:30:06;13.60;39.30
16172;DHT22;8192;53.596;10.166;2023-05-16T15:32:34;13.30;42.20
16172;DHT22;8192;53.596;10.166;2023-05-16T15:35:01;13.20;41.80
16172;DHT22;8192;53.596;10.166;2023-05-16T15:37:28;13.80;42.20
16172;DHT22;8192;53.596;10.166;2023-05-16T15:39:55;13.90;42.30
16172;DHT22;8192;53.596;10.166;2023-05-16T15:42:24;13.60;42.50
16172;DHT22;8192;53.596;10.166;2023-05-16T15:44:51;13.30;44.80
16172;DHT22;8192;53.596;10.166;2023-05-16T15:47:19;13.20;46.50